Time;durP1;ratioP1;P1;durP2;ratioP2;P2;SDS_P1;SDS_P2;PMS_P1;PMS_P2;Temp;Humidity;BMP_temperature;BMP_pressure;BME280_temperature;BME280_humidity;BME280_pressure;Samples;Min_cycle;Max_cycle;Signal;HPM_P1;HPM_P2
2022/04/12 00:00:53;;;;;;;30.58;8.88;;;;;;;9.55;98.97;99008.06;10377572;28;20050;-83
2022/04/12 00:05:54;;;;;;;26.38;8.27;;;;;;;8.77;99.54;98884.63;10360357;28;20448;-81
2022/04/12 00:10:55;;;;;;;18.58;8.93;;;;;;;9.45;100.00;98991.69;10359505;28;20046;-81
2022/04/12 00:15:56;;;;;;;19.23;8.65;;;;;;;9.39;100.00;98971.25;10347598;28;20037;-81
2022/04/12 00:20:57;;;;;;;16.75;8.25;;;;;;;9.21;100.00;98957.66;10376443;28;20052;-81
2022/04/12 00:25:57;;;;;;;20.27;8.85;;;;;;;8.90;100.00;98912.00;10376965;28;20069;-82
2022/04/12 00:30:58;;;;;;;28.67;9.43;;;;;;;9.27;100.00;98947.16;10376847;28;20041;-82
2022/04/12 00:36:00;;;;;;;19.23;9.35;;;;;;;9.13;100.00;98910.97;10358664;28;20391;-81
2022/04/12 00:41:04;;;;;;;23.75;9.65;;;;;;;9.02;100.00;98900.91;10374786;28;20116;-81
2022/04/12 00:46:05;;;;;;;25.27;9.88;;;;;;;9.31;100.00;98966.13;10376665;28;20413;-80
2022/04/12 00:51:06;;;;;;;22.17;9.25;;;;;;;8.30;100.00;98790.78;10375350;28;20049;-81
2022/04/12 00:56:08;;;;;;;24.50;9.35;;;;;;;8.68;100.00;98855.66;10375646;28;20061;-81
2022/04/12 01:01:09;;;;;;;21.88;9.18;;;;;;;9.67;100.00;99010.19;10375229;28;20096;-81
2022/04/12 01:06:10;;;;;;;25.83;9.63;;;;;;;8.87;100.00;98890.41;10357958;28;20084;-81
2022/04/12 01:11:12;;;;;;;20.45;9.60;;;;;;;9.05;100.00;98906.63;10375035;28;20038;-80
2022/04/12 01:16:13;;;;;;;21.15;10.18;;;;;;;9.28;100.00;98963.84;10374298;28;20041;-80
2022/04/12 01:21:14;;;;;;;19.83;9.80;;;;;;;9.81;100.00;99049.00;10373839;28;20046;-80
2022/04/12 01:26:15;;;;;;;22.27;9.70;;;;;;;8.09;100.00;98739.53;10374160;28;20512;-80
2022/04/12 01:31:16;;;;;;;24.20;10.48;;;;;;;9.23;100.00;98934.47;10375052;28;20052;-80
2022/04/12 01:36:17;;;;;;;23.33;10.23;;;;;;;9.18;100.00;98905.06;10373559;28;20420;-80
2022/04/12 01:41:18;;;;;;;27.20;11.63;;;;;;;8.93;100.00;98879.03;10373218;28;20045;-81
2022/04/12 01:46:18;;;;;;;27.17;10.68;;;;;;;9.02;100.00;98869.94;10374357;28;20153;-80
2022/04/12 01:51:19;;;;;;;22.05;9.52;;;;;;;8.80;99.81;98840.03;10374049;28;20053;-80
2022/04/12 01:56:20;;;;;;;25.75;10.77;;;;;;;9.28;100.00;98905.56;10374046;28;20053;-80
2022/04/12 02:01:21;;;;;;;25.17;10.98;;;;;;;10.02;100.00;99030.38;10373132;28;20048;-79
2022/04/12 02:06:22;;;;;;;25.73;10.77;;;;;;;9.99;100.00;99020.16;10372377;28;20414;-79
2022/04/12 02:11:23;;;;;;;29.23;10.73;;;;;;;8.51;100.00;98811.13;10365888;28;20054;-79
2022/04/12 02:16:24;;;;;;;32.67;10.60;;;;;;;8.84;100.00;98811.34;10373087;28;20033;-79
2022/04/12 02:21:25;;;;;;;25.08;10.50;;;;;;;8.69;100.00;98777.03;10372991;28;20453;-79
2022/04/12 02:26:25;;;;;;;25.00;11.23;;;;;;;9.40;100.00;98871.38;10354907;28;20088;-80
2022/04/12 02:31:26;;;;;;;19.73;10.93;;;;;;;9.22;100.00;98832.97;10373005;28;20474;-79
2022/04/12 02:36:27;;;;;;;23.45;11.00;;;;;;;9.00;100.00;98783.72;10372293;28;20061;-79
2022/04/12 02:41:28;;;;;;;20.92;11.27;;;;;;;9.86;100.00;98937.84;10350104;28;20038;-79
2022/04/12 02:46:29;;;;;;;24.92;12.23;;;;;;;9.53;100.00;98882.84;10334153;28;20049;-79
2022/04/12 02:51:30;;;;;;;24.98;11.25;;;;;;;9.03;100.00;98807.97;10342701;28;20030;-79
2022/04/12 02:56:31;;;;;;;26.17;10.82;;;;;;;8.64;100.00;98745.84;10341162;28;20065;-80
2022/04/12 03:01:32;;;;;;;17.73;10.05;;;;;;;9.70;100.00;98914.34;10338682;28;20111;-79
2022/04/12 03:06:33;;;;;;;21.80;10.63;;;;;;;8.59;100.00;98750.09;10347853;28;20489;-79
2022/04/12 03:11:35;;;;;;;20.50;10.35;;;;;;;8.16;100.00;98702.56;10340492;28;20050;-80
2022/04/12 03:16:37;;;;;;;19.67;10.55;;;;;;;8.84;100.00;98774.28;10342460;28;20058;-81
2022/04/12 03:21:37;;;;;;;24.77;9.25;;;;;;;9.97;100.00;98955.06;10378346;28;20221;-80
2022/04/12 03:26:38;;;;;;;24.80;10.57;;;;;;;9.69;100.00;98908.22;10378782;28;20205;-79
2022/04/12 03:31:39;;;;;;;25.48;10.57;;;;;;;9.05;100.00;98784.78;10370489;28;20458;-79
2022/04/12 03:36:40;;;;;;;24.40;9.68;;;;;;;9.36;100.00;98807.31;10378136;28;20062;-79
2022/04/12 03:41:40;;;;;;;28.23;10.38;;;;;;;9.13;100.00;98749.38;10378157;28;20042;-79
2022/04/12 03:46:41;;;;;;;17.50;9.23;;;;;;;9.33;100.00;98786.53;10377982;28;20129;-79
2022/04/12 03:51:42;;;;;;;24.50;8.85;;;;;;;8.94;100.00;98711.16;10359680;28;20060;-79
2022/04/12 03:56:43;;;;;;;14.80;7.57;;;;;;;9.63;100.00;98794.97;10369691;28;20069;-80
2022/04/12 04:01:46;;;;;;;16.73;7.93;;;;;;;9.52;100.00;98775.19;10418478;28;20500;-82
2022/04/12 04:06:47;;;;;;;13.25;7.28;;;;;;;10.25;100.00;98905.31;10418218;28;20094;-82
2022/04/12 04:11:48;;;;;;;12.82;7.20;;;;;;;10.03;100.00;98890.59;10418187;28;20034;-79
2022/04/12 04:16:49;;;;;;;16.20;6.90;;;;;;;9.98;100.00;98885.88;10417053;28;20056;-80
2022/04/12 04:21:50;;;;;;;12.60;6.03;;;;;;;9.30;100.00;98750.66;10418365;28;20116;-82
2022/04/12 04:26:55;;;;;;;9.43;5.95;;;;;;;10.37;100.00;98894.97;10416931;28;20504;-79
2022/04/12 04:31:56;;;;;;;9.88;5.63;;;;;;;9.85;100.00;98805.47;10416100;28;20041;-80
2022/04/12 04:36:56;;;;;;;13.18;4.88;;;;;;;10.36;100.00;98893.34;10416332;28;20041;-80
2022/04/12 04:41:57;;;;;;;13.65;5.38;;;;;;;9.60;100.00;98761.75;10416775;28;20136;-78
2022/04/12 04:46:59;;;;;;;8.93;4.40;;;;;;;10.64;100.00;98895.81;10399735;28;20038;-85
2022/04/12 04:51:59;;;;;;;11.90;4.43;;;;;;;9.00;100.00;98617.69;10321998;28;21051;-86
2022/04/12 04:57:00;;;;;;;9.70;4.15;;;;;;;10.84;100.00;98916.25;10371312;28;20058;-84
2022/04/12 05:02:01;;;;;;;7.47;4.30;;;;;;;10.94;99.82;98890.91;10354701;28;20042;-83
2022/04/12 05:07:02;;;;;;;10.88;4.22;;;;;;;10.20;98.75;98774.25;10375284;28;20046;-83
2022/04/12 05:12:03;;;;;;;7.57;3.85;;;;;;;9.98;98.68;98707.31;10375881;28;20042;-84
2022/04/12 05:17:04;;;;;;;9.25;3.67;;;;;;;10.73;98.28;98811.44;10374626;28;20045;-84
2022/04/12 05:22:05;;;;;;;10.02;4.15;;;;;;;11.27;97.56;98883.91;10374502;28;20042;-84
2022/04/12 05:27:05;;;;;;;6.30;3.83;;;;;;;11.15;97.21;98851.81;10374010;28;20046;-84
2022/04/12 05:32:09;;;;;;;7.30;3.63;;;;;;;10.77;96.53;98786.13;10374198;28;20041;-84
2022/04/12 05:37:10;;;;;;;7.18;3.55;;;;;;;10.90;95.86;98796.69;10373475;28;20095;-84
2022/04/12 05:42:11;;;;;;;10.13;4.60;;;;;;;11.59;95.02;98875.00;10373316;28;20394;-84
2022/04/12 05:47:12;;;;;;;9.60;4.22;;;;;;;10.25;93.98;98665.66;10373721;28;20072;-83
2022/04/12 05:52:13;;;;;;;9.80;4.22;;;;;;;10.68;94.09;98737.72;10372997;28;20428;-83
2022/04/12 05:57:14;;;;;;;6.97;3.17;;;;;;;10.79;93.81;98744.19;10372921;28;20085;-83
2022/04/12 06:02:15;;;;;;;7.28;3.72;;;;;;;11.29;93.46;98818.06;10372535;28;20037;-82
2022/04/12 06:07:15;;;;;;;8.95;3.47;;;;;;;10.48;93.40;98699.75;10373649;28;20050;-85
2022/04/12 06:12:16;;;;;;;5.60;3.45;;;;;;;10.51;92.83;98709.97;10372494;28;20076;-83
2022/04/12 06:17:17;;;;;;;7.32;3.65;;;;;;;11.10;92.93;98803.81;10373031;28;20038;-85
2022/04/12 06:22:18;;;;;;;7.45;4.55;;;;;;;11.39;92.63;98827.22;10355021;28;20409;-83
2022/04/12 06:27:28;;;;;;;12.10;4.25;;;;;;;10.61;92.73;98702.38;10372409;28;20048;-83
2022/04/12 06:32:29;;;;;;;20.70;5.25;;;;;;;10.78;92.47;98726.66;10372979;28;20080;-83
2022/04/12 06:37:31;;;;;;;9.57;4.10;;;;;;;10.46;91.84;98665.44;10372764;28;20124;-83
2022/04/12 06:42:32;;;;;;;22.38;4.82;;;;;;;10.94;92.41;98757.25;10379203;28;20494;-83
2022/04/12 06:47:33;;;;;;;7.80;3.72;;;;;;;10.61;92.86;98726.25;10380982;28;20049;-83
2022/04/12 06:52:34;;;;;;;84.13;48.92;;;;;;;11.15;92.79;98796.81;10380850;28;20041;-83
2022/04/12 06:57:36;;;;;;;42.20;8.30;;;;;;;9.81;91.90;98587.56;10379579;28;20054;-83
2022/04/12 07:02:37;;;;;;;9.57;4.50;;;;;;;10.24;92.43;98656.88;10380241;28;20103;-83
2022/04/12 07:07:39;;;;;;;10.63;4.13;;;;;;;10.52;92.79;98703.63;10379834;28;20049;-83
2022/04/12 07:12:41;;;;;;;10.48;4.45;;;;;;;10.01;92.69;98617.53;10379648;28;20046;-83
2022/04/12 07:17:42;;;;;;;9.38;3.38;;;;;;;11.12;92.42;98820.34;10379158;28;20072;-83
2022/04/12 07:22:43;;;;;;;10.82;3.60;;;;;;;11.60;91.97;98881.13;10379032;28;20049;-82
2022/04/12 07:27:43;;;;;;;6.22;3.63;;;;;;;10.83;92.38;98760.53;10378767;28;20088;-83
2022/04/12 07:32:44;;;;;;;14.18;4.38;;;;;;;10.32;92.08;98718.75;10378173;28;20046;-83
2022/04/12 07:37:45;;;;;;;7.72;3.83;;;;;;;10.45;93.01;98753.28;10378641;28;20038;-83
2022/04/12 07:42:45;;;;;;;10.27;3.50;;;;;;;10.82;93.02;98828.78;10377726;28;20407;-82
2022/04/12 07:47:46;;;;;;;6.80;3.53;;;;;;;10.71;92.92;98786.94;10375889;28;20038;-82
2022/04/12 07:52:47;;;;;;;10.65;4.07;;;;;;;11.32;92.97;98863.66;10376418;28;20494;-81
2022/04/12 07:57:48;;;;;;;10.43;3.95;;;;;;;10.74;93.66;98805.13;10377074;28;20052;-82
2022/04/12 08:02:49;;;;;;;7.97;3.85;;;;;;;11.23;93.37;98838.31;10377427;28;20460;-82
2022/04/12 08:07:50;;;;;;;9.77;3.40;;;;;;;11.58;92.65;98869.91;10377994;28;20038;-82
2022/04/12 08:12:52;;;;;;;7.07;3.53;;;;;;;11.70;92.11;98809.72;10376051;28;20041;-82
2022/04/12 08:17:53;;;;;;;12.20;3.53;;;;;;;11.48;91.57;98763.16;10376336;28;20207;-81
2022/04/12 08:22:54;;;;;;;6.88;3.42;;;;;;;11.65;91.07;98762.44;10376918;28;20133;-82
2022/04/12 08:27:55;;;;;;;12.80;4.40;;;;;;;12.49;91.02;98852.84;10377177;28;20041;-80
2022/04/12 08:32:56;;;;;;;17.00;5.00;;;;;;;11.68;90.41;98699.22;10376716;28;20148;-82
2022/04/12 08:37:57;;;;;;;15.32;4.85;;;;;;;12.41;88.88;98768.69;10375568;28;20172;-82
2022/04/12 08:43:01;;;;;;;9.18;4.28;;;;;;;13.55;86.16;98803.81;10375613;28;20041;-82
2022/04/12 08:48:05;;;;;;;20.20;5.85;;;;;;;13.72;84.34;98819.19;10376540;28;20042;-80
2022/04/12 08:53:06;;;;;;;14.90;3.97;;;;;;;12.73;84.89;98686.81;10375646;28;20053;-82
2022/04/12 08:58:07;;;;;;;10.50;3.53;;;;;;;12.85;83.40;98620.25;10375429;28;20050;-82
2022/04/12 09:03:08;;;;;;;13.90;4.55;;;;;;;14.33;80.14;98703.25;10374440;28;20052;-82
2022/04/12 09:08:29;;;;;;;21.08;4.60;;;;;;;15.02;75.50;98792.47;10375178;28;20049;-81
2022/04/12 09:13:31;;;;;;;8.80;3.60;;;;;;;14.60;77.64;98792.59;10375021;28;20395;-83
2022/04/12 09:18:42;;;;;;;7.00;3.60;;;;;;;14.06;76.58;98706.38;10374709;28;20038;-78
2022/04/12 09:23:44;;;;;;;8.55;4.20;;;;;;;14.35;77.40;98808.00;10374227;28;20042;-78
2022/04/12 09:28:45;;;;;;;6.57;3.75;;;;;;;14.64;76.20;98781.44;10374813;28;20100;-79
2022/04/12 09:33:47;;;;;;;12.77;3.90;;;;;;;15.22;73.81;98783.22;10374119;28;20046;-80
2022/04/12 09:38:56;;;;;;;11.93;3.67;;;;;;;15.51;71.78;98824.22;10373851;28;20068;-80
2022/04/12 09:44:08;;;;;;;7.95;3.00;;;;;;;14.58;72.20;98719.88;10373936;28;20077;-80
2022/04/12 09:49:09;;;;;;;11.85;3.58;;;;;;;14.81;74.36;98842.00;10373732;28;20069;-81
2022/04/12 09:54:21;;;;;;;8.82;3.40;;;;;;;13.78;74.40;98722.19;10374115;28;20513;-82
2022/04/12 09:59:22;;;;;;;9.55;4.53;;;;;;;13.37;75.87;98726.47;10373032;28;20046;-81
2022/04/12 10:04:24;;;;;;;12.45;4.10;;;;;;;12.46;76.12;98613.56;10372357;28;20069;-78
2022/04/12 10:09:28;;;;;;;14.95;4.53;;;;;;;13.40;77.10;98822.88;10372958;28;20454;-78
2022/04/12 10:14:30;;;;;;;17.58;4.50;;;;;;;13.66;78.15;98906.28;10372959;28;20045;-78
2022/04/12 10:19:32;;;;;;;10.35;3.25;;;;;;;12.84;78.70;98786.53;10372806;28;20482;-79
2022/04/12 10:24:34;;;;;;;12.23;3.40;;;;;;;13.45;79.41;98907.53;10372748;28;20042;-78
2022/04/12 10:29:35;;;;;;;9.70;4.15;;;;;;;13.28;79.88;98901.16;10372498;28;20080;-78
2022/04/12 10:35:01;;;;;;;9.13;3.60;;;;;;;13.43;81.02;98920.28;10371682;28;20120;-81
2022/04/12 10:40:06;;;;;;;12.07;4.32;;;;;;;13.43;80.36;98922.94;10371683;28;20548;-80
2022/04/12 10:45:07;;;;;;;11.88;4.60;;;;;;;13.19;80.24;98889.91;10371679;28;20037;-77
2022/04/12 10:50:14;;;;;;;13.10;4.28;;;;;;;12.71;80.93;98811.47;10371631;28;20583;-77
2022/04/12 10:55:17;;;;;;;9.45;4.13;;;;;;;13.40;81.15;98940.22;10372493;28;20136;-76
2022/04/12 11:00:23;;;;;;;9.30;4.07;;;;;;;13.32;81.56;98929.03;10372237;28;20042;-77
2022/04/12 11:05:52;;;;;;;13.55;4.22;;;;;;;12.86;81.80;98887.56;10371255;28;20045;-77
2022/04/12 11:10:54;;;;;;;20.63;4.45;;;;;;;13.40;81.15;98984.75;10368834;28;20081;-79
2022/04/12 11:16:09;;;;;;;11.88;4.30;;;;;;;13.27;81.37;98942.19;10371651;28;20453;-78
2022/04/12 11:21:09;;;;;;;12.57;4.47;;;;;;;13.37;81.60;98955.84;10371504;28;20052;-78
2022/04/12 11:26:45;;;;;;;17.48;4.72;;;;;;;13.30;82.42;98969.25;10373822;28;20038;-79
2022/04/12 11:31:50;;;;;;;14.00;4.95;;;;;;;13.16;82.17;98968.53;10378349;28;20509;-80
2022/04/12 11:36:54;;;;;;;10.88;4.55;;;;;;;13.35;82.99;99008.59;10379366;28;20069;-77
2022/04/12 11:42:06;;;;;;;15.82;4.43;;;;;;;13.22;83.74;98999.66;10378323;28;20042;-78
2022/04/12 11:47:10;;;;;;;11.38;4.20;;;;;;;13.41;82.82;99047.75;10378393;28;20048;-79
2022/04/12 11:52:13;;;;;;;14.00;4.97;;;;;;;12.73;83.28;98931.94;10378580;28;20041;-79
2022/04/12 11:57:20;;;;;;;10.32;4.55;;;;;;;12.90;84.22;98952.75;10378861;28;20065;-79
2022/04/12 12:02:23;;;;;;;10.30;4.75;;;;;;;12.68;84.84;98954.94;10377970;28;20405;-77
2022/04/12 12:07:25;;;;;;;8.43;3.60;;;;;;;13.13;85.84;99046.28;10377012;28;20042;-77
2022/04/12 12:12:37;;;;;;;5.70;1.70;;;;;;;13.18;85.55;99096.28;10376810;28;20444;-77
2022/04/12 12:17:39;;;;;;;3.45;1.67;;;;;;;13.19;84.99;99087.25;10377167;28;20048;-77
2022/04/12 12:22:42;;;;;;;5.60;1.40;;;;;;;12.50;84.75;98958.34;10376532;28;20037;-76
2022/04/12 12:27:52;;;;;;;3.45;1.45;;;;;;;13.15;84.37;99033.53;10377269;28;20452;-76
2022/04/12 12:32:56;;;;;;;5.40;0.80;;;;;;;13.30;81.12;99033.25;10375994;28;20040;-75
2022/04/12 12:38:10;;;;;;;9.88;1.00;;;;;;;12.45;77.75;98908.38;10375694;28;20473;-80
2022/04/12 12:43:13;;;;;;;3.17;1.05;;;;;;;13.06;78.31;99068.69;10362791;28;20038;-75
2022/04/12 12:48:15;;;;;;;4.25;0.73;;;;;;;12.88;78.17;99064.88;10358993;28;20083;-82
2022/04/12 12:53:18;;;;;;;3.92;1.05;;;;;;;12.46;78.99;99005.06;10351343;28;20054;-78
2022/04/12 12:58:21;;;;;;;4.00;0.90;;;;;;;12.51;78.26;99039.88;10357607;28;20460;-77
2022/04/12 13:03:23;;;;;;;2.95;0.75;;;;;;;12.36;80.98;99073.97;10362857;28;20045;-77
2022/04/12 13:08:26;;;;;;;8.98;1.23;;;;;;;11.19;84.31;98983.31;10356918;28;20126;-77
2022/04/12 13:13:31;;;;;;;4.25;1.20;;;;;;;11.56;86.77;99122.78;10374506;28;20053;-77
2022/04/12 13:18:32;;;;;;;3.22;1.27;;;;;;;11.35;88.53;99147.72;10374802;28;20096;-77
2022/04/12 13:23:33;;;;;;;3.38;1.42;;;;;;;10.82;90.27;99106.91;10374609;28;20037;-78
2022/04/12 13:28:34;;;;;;;4.45;1.70;;;;;;;10.17;91.90;99042.69;10373697;28;20117;-79
2022/04/12 13:33:34;;;;;;;3.33;1.55;;;;;;;10.17;93.41;99063.91;10374321;28;20060;-79
2022/04/12 13:38:35;;;;;;;3.63;1.70;;;;;;;10.48;95.05;99138.63;10373832;28;20053;-77
2022/04/12 13:43:36;;;;;;;3.05;1.90;;;;;;;10.26;96.49;99168.91;10374502;28;20088;-79
2022/04/12 13:48:37;;;;;;;5.07;2.00;;;;;;;9.74;97.87;99091.41;10372978;28;20034;-82
2022/04/12 13:53:38;;;;;;;4.03;2.35;;;;;;;9.50;99.57;99031.69;10373211;28;20064;-79
2022/04/12 13:58:38;;;;;;;3.83;2.13;;;;;;;9.64;100.00;99076.88;10373497;28;20056;-81
2022/04/12 14:03:39;;;;;;;4.60;2.20;;;;;;;8.24;100.00;98906.91;10373524;28;20168;-79
2022/04/12 14:08:41;;;;;;;5.50;2.20;;;;;;;9.67;100.00;99195.81;10372569;28;20049;-80
2022/04/12 14:13:44;;;;;;;4.47;2.17;;;;;;;9.58;100.00;99192.47;10372474;28;20033;-78
2022/04/12 14:18:45;;;;;;;3.55;2.20;;;;;;;9.54;100.00;99164.66;10373206;28;20053;-81
2022/04/12 14:23:46;;;;;;;4.60;1.88;;;;;;;9.48;100.00;99093.84;10372293;28;20533;-79
2022/04/12 14:28:46;;;;;;;5.85;1.60;;;;;;;9.20;100.00;99025.75;10372527;28;20038;-80
2022/04/12 14:33:47;;;;;;;2.85;1.48;;;;;;;9.74;100.00;99133.84;10372568;28;20041;-81
2022/04/12 14:38:48;;;;;;;3.97;1.25;;;;;;;9.01;100.00;99053.72;10363059;28;20038;-81
2022/04/12 14:43:49;;;;;;;5.65;1.10;;;;;;;9.08;100.00;99090.84;10372292;28;20077;-81
2022/04/12 14:48:50;;;;;;;4.82;0.77;;;;;;;8.94;100.00;99119.03;10372114;28;20042;-81
2022/04/12 14:53:50;;;;;;;3.08;0.70;;;;;;;9.19;100.00;99179.63;10371331;28;20065;-81
2022/04/12 14:58:51;;;;;;;3.83;0.90;;;;;;;9.73;100.00;99279.91;10359987;28;20050;-81
2022/04/12 15:03:52;;;;;;;6.38;1.00;;;;;;;9.30;100.00;99240.91;10337541;28;20074;-79
2022/04/12 15:08:53;;;;;;;4.18;1.05;;;;;;;9.60;100.00;99329.16;10338986;28;20046;-79
2022/04/12 15:13:53;;;;;;;3.30;0.90;;;;;;;9.29;100.00;99305.50;10338484;28;20042;-78
2022/04/12 15:18:54;;;;;;;4.20;0.75;;;;;;;9.29;100.00;99331.19;10338896;28;20521;-79
2022/04/12 15:23:56;;;;;;;2.47;0.70;;;;;;;9.29;100.00;99337.31;10338548;28;20045;-78
2022/04/12 15:28:57;;;;;;;3.05;0.80;;;;;;;9.45;100.00;99381.34;10338313;28;20474;-76
2022/04/12 15:33:58;;;;;;;6.28;0.90;;;;;;;8.40;100.00;99206.75;10338880;28;20121;-78
2022/04/12 15:38:58;;;;;;;2.40;0.60;;;;;;;8.67;100.00;99268.81;10320173;28;20129;-77
2022/04/12 15:43:59;;;;;;;5.95;0.90;;;;;;;8.72;100.00;99289.47;10349993;28;20038;-77
2022/04/12 15:49:00;;;;;;;2.38;0.70;;;;;;;9.38;100.00;99397.16;10344614;28;20042;-76
2022/04/12 15:54:01;;;;;;;2.75;0.80;;;;;;;9.20;100.00;99394.06;10377268;28;20045;-77
2022/04/12 15:59:05;;;;;;;2.63;0.70;;;;;;;9.51;100.00;99462.81;10359779;28;20140;-79
2022/04/12 16:04:06;;;;;;;1.58;0.70;;;;;;;8.87;100.00;99341.44;10377722;28;20100;-76
2022/04/12 16:09:07;;;;;;;1.33;0.52;;;;;;;9.52;100.00;99451.19;10377684;28;20383;-76
2022/04/12 16:14:08;;;;;;;2.50;0.60;;;;;;;9.52;100.00;99450.38;10377195;28;20478;-77
2022/04/12 16:19:08;;;;;;;1.60;0.45;;;;;;;9.51;100.00;99443.41;10377451;28;20042;-79
2022/04/12 16:24:12;;;;;;;2.05;0.60;;;;;;;9.29;100.00;99427.41;10376071;28;20409;-77
2022/04/12 16:29:13;;;;;;;2.70;0.50;;;;;;;9.50;100.00;99482.38;10377087;28;20489;-78
2022/04/12 16:34:14;;;;;;;1.90;0.55;;;;;;;9.07;100.00;99434.44;10377344;28;20038;-78
2022/04/12 16:39:15;;;;;;;5.80;3.30;;;;;;;9.42;100.00;99506.31;10370668;28;20437;-75
2022/04/12 16:44:16;;;;;;;2.35;1.20;;;;;;;9.41;100.00;99499.38;10355628;28;20123;-73
2022/04/12 17:02:15;;;;;;;2.08;0.70;;;;;;;9.14;100.00;99491.00;10299464;28;20054;-76
2022/04/12 17:07:17;;;;;;;1.80;0.70;;;;;;;8.79;100.00;99436.00;10293434;28;20046;-81
2022/04/12 17:12:17;;;;;;;1.85;0.75;;;;;;;7.78;100.00;99280.00;10294295;28;20557;-76
2022/04/12 17:17:18;;;;;;;1.27;0.63;;;;;;;9.21;100.00;99508.81;10325090;28;20053;-76
2022/04/12 17:22:20;;;;;;;2.13;0.80;;;;;;;9.17;100.00;99528.75;10327944;28;20072;-77
2022/04/12 17:27:21;;;;;;;4.30;2.50;;;;;;;8.80;100.00;99494.09;10322831;28;20042;-75
2022/04/12 17:32:22;;;;;;;1.35;0.82;;;;;;;8.90;100.00;99530.94;10323123;28;20046;-75
2022/04/12 17:37:23;;;;;;;1.77;0.80;;;;;;;8.61;100.00;99495.38;10325468;28;20148;-78
2022/04/12 17:42:23;;;;;;;1.52;0.90;;;;;;;8.70;100.00;99541.16;10324829;28;20124;-76
2022/04/12 17:47:25;;;;;;;1.70;1.10;;;;;;;8.55;100.00;99527.84;10323853;28;20046;-76
2022/04/12 17:52:32;;;;;;;1.92;1.02;;;;;;;8.42;100.00;99531.09;10326033;28;20041;-79
2022/04/12 17:57:33;;;;;;;1.70;1.00;;;;;;;8.56;100.00;99544.59;10296620;28;20076;-81
2022/04/12 18:02:34;;;;;;;1.55;1.10;;;;;;;6.97;100.00;99296.25;10296668;28;20113;-81
2022/04/12 18:07:36;;;;;;;2.72;1.38;;;;;;;8.29;100.00;99519.41;10331796;28;20069;-83
2022/04/12 18:12:37;;;;;;;2.53;1.33;;;;;;;8.36;100.00;99541.50;10331785;28;20112;-78
2022/04/12 18:17:38;;;;;;;2.45;1.25;;;;;;;8.34;100.00;99544.31;10331240;28;20038;-80
2022/04/12 18:22:40;;;;;;;3.60;1.50;;;;;;;8.27;100.00;99529.31;10323654;28;20108;-78
2022/04/12 18:27:43;;;;;;;2.22;1.40;;;;;;;7.93;100.00;99510.13;10314640;28;20043;-78
2022/04/12 18:32:44;;;;;;;2.85;1.67;;;;;;;8.14;100.00;99536.00;10327307;28;20038;-78
2022/04/12 18:37:45;;;;;;;2.67;1.70;;;;;;;7.93;100.00;99517.25;10330316;28;20050;-78
2022/04/12 18:42:47;;;;;;;3.10;1.60;;;;;;;7.85;99.83;99536.59;10331451;28;20042;-77
2022/04/12 18:47:48;;;;;;;4.03;2.20;;;;;;;6.90;99.81;99407.00;10303475;28;20069;-82
2022/04/12 18:52:49;;;;;;;3.75;2.22;;;;;;;7.83;99.87;99569.47;10291383;28;20046;-79
2022/04/12 18:57:50;;;;;;;5.35;2.45;;;;;;;7.15;100.00;99455.34;10273344;28;20050;-78
2022/04/12 19:02:52;;;;;;;4.28;2.22;;;;;;;7.06;100.00;99443.13;10290463;28;20063;-78
2022/04/12 19:07:53;;;;;;;4.00;2.50;;;;;;;7.75;100.00;99543.91;10291976;28;20078;-77
2022/04/12 19:12:54;;;;;;;4.18;2.47;;;;;;;7.72;100.00;99544.25;10291371;28;20053;-77
2022/04/12 19:17:54;;;;;;;5.95;2.67;;;;;;;7.58;100.00;99526.44;10290842;28;20050;-77
2022/04/12 19:22:57;;;;;;;4.22;2.60;;;;;;;7.62;99.80;99552.34;10290665;28;20035;-79
2022/04/12 19:27:58;;;;;;;4.35;2.67;;;;;;;6.76;100.00;99431.44;10291007;28;20498;-80
2022/04/12 19:32:59;;;;;;;3.60;2.50;;;;;;;7.27;100.00;99513.94;10290769;28;20039;-79
2022/04/12 19:38:00;;;;;;;8.13;3.10;;;;;;;7.69;99.89;99597.44;10290496;28;20089;-80
2022/04/12 19:43:00;;;;;;;4.35;2.70;;;;;;;7.71;100.00;99588.34;10285388;28;20494;-78
2022/04/12 19:48:05;;;;;;;3.40;2.53;;;;;;;7.70;99.71;99565.53;10293059;28;20051;-79
2022/04/12 19:53:06;;;;;;;4.80;2.78;;;;;;;6.40;99.71;99350.81;10288798;28;20125;-78
2022/04/12 19:58:11;;;;;;;4.25;3.25;;;;;;;7.52;99.79;99564.91;10293375;28;20047;-78
2022/04/12 20:03:12;;;;;;;3.90;3.00;;;;;;;6.84;99.62;99423.50;10291529;28;20059;-78
2022/04/12 20:08:15;;;;;;;7.25;3.15;;;;;;;6.65;100.00;99414.13;10291217;28;20043;-78
2022/04/12 20:13:16;;;;;;;4.65;3.22;;;;;;;6.78;100.00;99432.91;10296772;28;20039;-77
2022/04/12 20:18:17;;;;;;;5.82;3.30;;;;;;;7.47;99.54;99573.34;10296383;28;20039;-79
2022/04/12 20:23:19;;;;;;;5.10;3.30;;;;;;;7.23;99.61;99539.00;10296233;28;20043;-78
2022/04/12 20:28:21;;;;;;;4.10;3.40;;;;;;;6.75;99.31;99462.28;10296251;28;20034;-78
2022/04/12 20:33:22;;;;;;;8.52;3.58;;;;;;;6.88;100.00;99471.50;10295938;28;20034;-78
2022/04/12 20:38:23;;;;;;;5.25;3.70;;;;;;;7.55;100.00;99559.31;10295713;28;20454;-78
2022/04/12 20:43:25;;;;;;;6.10;3.58;;;;;;;7.17;99.52;99510.63;10296531;28;20061;-78
2022/04/12 20:48:25;;;;;;;5.03;3.60;;;;;;;7.40;99.17;99545.13;10295539;28;20039;-78
2022/04/12 20:53:26;;;;;;;5.13;3.50;;;;;;;7.49;99.63;99546.75;10295814;28;21240;-77
2022/04/12 20:58:29;;;;;;;7.03;4.00;;;;;;;7.35;99.15;99523.66;10291461;28;20070;-77
2022/04/12 21:03:30;;;;;;;8.27;4.50;;;;;;;7.88;99.34;99622.69;10295287;28;20116;-77
2022/04/12 21:08:30;;;;;;;4.72;3.63;;;;;;;7.71;99.30;99585.69;10294042;28;20097;-78
2022/04/12 21:13:31;;;;;;;5.97;4.00;;;;;;;7.73;98.74;99588.19;10294014;28;20039;-78
2022/04/12 21:18:32;;;;;;;6.80;4.10;;;;;;;6.93;98.01;99459.47;10294398;28;20133;-77
2022/04/12 21:23:33;;;;;;;8.50;4.50;;;;;;;7.85;98.26;99608.00;10294462;28;20116;-78
2022/04/12 21:28:34;;;;;;;8.85;4.88;;;;;;;7.96;98.08;99622.69;10293646;28;20038;-78
2022/04/12 21:33:35;;;;;;;8.00;4.20;;;;;;;6.28;97.83;99365.31;10293793;28;20038;-78
2022/04/12 21:38:36;;;;;;;7.40;3.67;;;;;;;7.34;97.09;99556.34;10292998;28;20050;-78
2022/04/12 21:43:36;;;;;;;4.70;3.30;;;;;;;7.41;96.79;99576.66;10293034;28;20442;-78
2022/04/12 21:48:37;;;;;;;5.18;3.20;;;;;;;7.54;95.46;99595.47;10292560;28;20039;-79
2022/04/12 21:53:40;;;;;;;4.68;3.35;;;;;;;7.14;95.24;99540.81;10292317;28;20039;-79
2022/04/12 21:58:41;;;;;;;6.07;3.72;;;;;;;7.41;94.52;99600.44;10293022;28;20709;-78
2022/04/12 22:03:42;;;;;;;6.22;3.28;;;;;;;6.95;95.31;99512.13;10291871;28;20058;-79
2022/04/12 22:08:43;;;;;;;6.40;3.25;;;;;;;6.88;94.91;99511.13;10292084;28;20046;-78
2022/04/12 22:13:43;;;;;;;4.57;3.05;;;;;;;7.08;95.34;99558.16;10292834;28;20124;-78
2022/04/12 22:18:45;;;;;;;5.07;3.45;;;;;;;7.17;96.04;99577.47;10292154;28;20042;-78
2022/04/12 22:23:50;;;;;;;5.80;3.20;;;;;;;6.23;97.15;99438.00;10292155;28;20054;-78
2022/04/12 22:28:51;;;;;;;5.32;3.20;;;;;;;6.78;96.72;99546.41;10291559;28;20047;-78
2022/04/12 22:33:52;;;;;;;10.45;3.05;;;;;;;6.85;97.55;99573.84;10292387;28;20126;-78
2022/04/12 22:38:52;;;;;;;5.32;3.25;;;;;;;6.51;97.18;99550.16;10291654;28;20057;-78
2022/04/12 22:43:53;;;;;;;4.93;3.13;;;;;;;6.35;96.60;99548.31;10291061;28;20130;-78
2022/04/12 22:48:54;;;;;;;4.65;2.83;;;;;;;6.24;97.11;99558.31;10291262;28;20035;-77
2022/04/12 22:53:57;;;;;;;6.75;3.03;;;;;;;6.43;97.42;99602.06;10292200;28;20043;-78
2022/04/12 22:58:58;;;;;;;4.97;2.58;;;;;;;6.37;96.86;99607.03;10290613;28;20050;-78
2022/04/12 23:03:58;;;;;;;3.85;2.20;;;;;;;5.97;96.56;99538.28;10291622;28;20059;-78
2022/04/12 23:08:59;;;;;;;5.85;2.50;;;;;;;6.19;96.70;99603.63;10291203;28;20058;-78
2022/04/12 23:14:00;;;;;;;6.78;2.47;;;;;;;6.13;96.60;99597.19;10291593;28;20078;-78
2022/04/12 23:19:01;;;;;;;8.13;2.30;;;;;;;5.59;96.09;99527.16;10290296;28;20133;-78
2022/04/12 23:24:01;;;;;;;5.40;2.42;;;;;;;6.06;95.94;99613.78;10295630;28;20047;-78
2022/04/12 23:29:02;;;;;;;5.32;2.10;;;;;;;5.48;96.55;99515.94;10299193;28;20046;-78